createdAt,value
2023-03-12T00:01:24.295Z,1.60
2023-03-12T00:03:52.903Z,1.60
2023-03-12T00:06:21.481Z,1.50
2023-03-12T00:08:49.646Z,1.70
2023-03-12T00:11:21.292Z,1.60
2023-03-12T00:13:54.400Z,1.70
2023-03-12T00:16:22.725Z,1.50
2023-03-12T00:18:53.272Z,1.50
2023-03-12T00:21:22.445Z,1.50
2023-03-12T00:23:52.054Z,1.60
2023-03-12T00:26:21.408Z,1.60
2023-03-12T00:28:50.400Z,1.60
2023-03-12T00:31:27.821Z,1.70
2023-03-12T00:33:56.720Z,1.60
2023-03-12T00:36:29.307Z,1.70
2023-03-12T00:38:58.970Z,1.70
2023-03-12T00:41:27.916Z,1.60
2023-03-12T00:43:55.112Z,1.70
2023-03-12T00:46:22.742Z,1.60
2023-03-12T00:48:50.691Z,1.50
2023-03-12T00:51:17.929Z,1.60
2023-03-12T00:53:45.007Z,1.60
2023-03-12T00:56:11.913Z,1.60
2023-03-12T00:58:38.957Z,1.60
2023-03-12T01:01:06.235Z,1.70
2023-03-12T01:03:33.472Z,1.70
2023-03-12T01:06:00.576Z,1.60
2023-03-12T01:08:27.569Z,1.60
2023-03-12T01:10:54.988Z,1.70
2023-03-12T01:13:22.357Z,1.70
2023-03-12T01:15:49.294Z,1.70
2023-03-12T01:18:16.493Z,1.80
2023-03-12T01:20:43.615Z,1.80
2023-03-12T01:23:10.639Z,1.90
2023-03-12T01:25:37.864Z,1.90
2023-03-12T01:28:06.853Z,1.80
2023-03-12T01:30:33.828Z,1.70
2023-03-12T01:33:00.917Z,1.80
2023-03-12T01:35:27.918Z,1.80
2023-03-12T01:37:55.984Z,1.70
2023-03-12T01:40:29.153Z,1.80
2023-03-12T01:42:58.986Z,1.70
2023-03-12T01:46:29.728Z,1.60
2023-03-12T01:49:35.767Z,1.70
2023-03-12T01:52:09.281Z,1.80
2023-03-12T01:55:05.011Z,1.70
2023-03-12T01:57:50.955Z,1.70
2023-03-12T02:00:25.574Z,1.80
2023-03-12T02:03:00.908Z,1.80
2023-03-12T02:05:48.523Z,1.80
2023-03-12T02:08:18.417Z,1.80
2023-03-12T02:10:46.603Z,1.80
2023-03-12T02:13:14.001Z,1.90
2023-03-12T02:15:41.473Z,1.90
2023-03-12T02:18:16.638Z,1.80
2023-03-12T02:21:08.108Z,1.70
2023-03-12T02:23:49.661Z,1.70
2023-03-12T02:26:20.483Z,1.80
2023-03-12T02:28:50.626Z,1.80
2023-03-12T02:31:29.735Z,1.80
2023-03-12T02:33:58.348Z,1.70
2023-03-12T02:36:25.230Z,1.60
2023-03-12T02:38:55.883Z,1.70
2023-03-12T02:41:41.477Z,1.90
2023-03-12T02:44:29.843Z,1.80
2023-03-12T02:47:02.225Z,1.80
2023-03-12T02:49:34.504Z,1.70
2023-03-12T02:52:03.722Z,1.70
2023-03-12T02:54:31.614Z,1.60
2023-03-12T02:56:58.970Z,1.60
2023-03-12T02:59:27.151Z,1.60
2023-03-12T03:02:00.809Z,1.60
2023-03-12T03:04:31.220Z,1.60
2023-03-12T03:06:58.230Z,1.60
2023-03-12T03:09:26.681Z,1.50
2023-03-12T03:11:54.128Z,1.40
2023-03-12T03:14:21.240Z,1.40
2023-03-12T03:16:48.148Z,1.40
2023-03-12T03:19:15.363Z,1.30
2023-03-12T03:21:43.800Z,1.40
2023-03-12T03:24:11.243Z,1.40
2023-03-12T03:26:38.708Z,1.30
2023-03-12T03:29:05.778Z,1.30
2023-03-12T03:31:32.883Z,1.30
2023-03-12T03:34:00.022Z,1.20
2023-03-12T03:36:27.181Z,1.20
2023-03-12T03:38:54.091Z,1.20
2023-03-12T03:41:23.095Z,1.20
2023-03-12T03:43:50.017Z,1.20
2023-03-12T03:46:18.670Z,1.20
2023-03-12T03:48:45.742Z,1.30
2023-03-12T03:51:12.773Z,1.30
2023-03-12T03:53:39.818Z,1.30
2023-03-12T03:56:17.295Z,1.30
2023-03-12T03:58:44.547Z,1.20
2023-03-12T04:01:14.927Z,1.20
2023-03-12T04:03:42.576Z,1.10
2023-03-12T04:06:11.616Z,1.10
2023-03-12T04:08:39.180Z,1.10
2023-03-12T04:11:20.328Z,1.10
2023-03-12T04:13:48.952Z,1.10
2023-03-12T04:16:18.171Z,1.00
2023-03-12T04:18:45.517Z,1.00
2023-03-12T04:21:15.150Z,1.00
2023-03-12T04:23:42.566Z,1.10
2023-03-12T04:26:10.261Z,1.00
2023-03-12T04:28:38.581Z,1.00
2023-03-12T04:31:10.416Z,0.90
2023-03-12T04:33:39.729Z,1.00
2023-03-12T04:36:08.984Z,0.90
2023-03-12T04:38:35.965Z,1.00
2023-03-12T04:41:07.940Z,1.00
2023-03-12T04:43:36.208Z,1.00
2023-03-12T04:46:04.561Z,1.00
2023-03-12T04:48:32.500Z,1.00
2023-03-12T04:50:59.762Z,1.00
2023-03-12T04:53:26.901Z,1.00
2023-03-12T04:55:53.911Z,1.00
2023-03-12T04:58:23.185Z,0.90
2023-03-12T05:00:51.320Z,0.90
2023-03-12T05:03:19.233Z,0.80
2023-03-12T05:05:46.478Z,0.80
2023-03-12T05:08:13.545Z,0.80
2023-03-12T05:10:40.486Z,0.90
2023-03-12T05:13:22.188Z,1.00
2023-03-12T05:15:50.753Z,1.10
2023-03-12T05:18:20.209Z,1.00
2023-03-12T05:20:47.947Z,0.90
2023-03-12T05:23:14.843Z,1.00
2023-03-12T05:25:41.803Z,0.90
2023-03-12T05:28:09.784Z,1.00
2023-03-12T05:30:36.782Z,0.90
2023-03-12T05:33:03.807Z,0.90
2023-03-12T05:35:31.075Z,1.00
2023-03-12T05:37:57.946Z,1.00
2023-03-12T05:40:24.866Z,1.10
2023-03-12T05:42:53.535Z,1.00
2023-03-12T05:45:20.461Z,1.00
2023-03-12T05:47:47.527Z,1.00
2023-03-12T05:50:16.971Z,1.10
2023-03-12T05:52:43.910Z,1.20
2023-03-12T05:55:10.953Z,1.20
2023-03-12T05:57:38.240Z,1.30
2023-03-12T06:00:07.166Z,1.10
2023-03-12T06:02:34.183Z,1.00
2023-03-12T06:05:01.873Z,1.00
2023-03-12T06:07:28.774Z,1.00
2023-03-12T06:09:55.952Z,1.00
2023-03-12T06:12:23.053Z,1.30
2023-03-12T06:14:50.121Z,1.40
2023-03-12T06:17:17.009Z,1.40
2023-03-12T06:19:44.346Z,1.20
2023-03-12T06:22:11.522Z,1.30
2023-03-12T06:24:38.458Z,1.10
2023-03-12T06:27:05.462Z,1.00
2023-03-12T06:29:32.535Z,0.80
2023-03-12T06:31:59.553Z,0.90
2023-03-12T06:34:27.149Z,1.00
2023-03-12T06:36:54.277Z,0.90
2023-03-12T06:39:21.487Z,0.90
2023-03-12T06:41:48.573Z,1.10
2023-03-12T06:44:15.834Z,1.20
2023-03-12T06:46:44.288Z,1.40
2023-03-12T06:49:11.879Z,1.70
2023-03-12T06:51:39.051Z,1.50
2023-03-12T06:54:06.167Z,1.50
2023-03-12T06:56:33.250Z,1.50
2023-03-12T06:59:00.962Z,1.50
2023-03-12T07:01:28.004Z,1.70
2023-03-12T07:03:54.881Z,1.60
2023-03-12T07:06:24.125Z,1.70
2023-03-12T07:08:52.532Z,1.90
2023-03-12T07:11:19.435Z,1.90
2023-03-12T07:13:46.387Z,2.10
2023-03-12T07:16:15.331Z,1.90
2023-03-12T07:18:42.336Z,2.00
2023-03-12T07:21:09.380Z,1.90
2023-03-12T07:23:36.336Z,1.80
2023-03-12T07:26:07.801Z,1.80
2023-03-12T07:28:34.758Z,1.50
2023-03-12T07:31:06.279Z,1.80
2023-03-12T07:33:34.068Z,2.00
2023-03-12T07:36:01.333Z,2.10
2023-03-12T07:38:28.569Z,2.00
2023-03-12T07:40:58.870Z,2.10
2023-03-12T07:43:26.451Z,2.10
2023-03-12T07:45:53.582Z,2.10
2023-03-12T07:48:20.645Z,2.20
2023-03-12T07:50:49.483Z,2.20
2023-03-12T07:53:17.790Z,2.20
2023-03-12T07:55:48.096Z,2.40
2023-03-12T07:58:17.945Z,2.50
2023-03-12T08:00:45.205Z,2.60
2023-03-12T08:03:13.268Z,2.70
2023-03-12T08:05:40.725Z,2.80
2023-03-12T08:08:07.777Z,3.00
2023-03-12T08:10:36.185Z,3.10
2023-03-12T08:13:03.225Z,3.20
2023-03-12T08:15:30.320Z,3.30
2023-03-12T08:17:57.175Z,2.90
2023-03-12T08:20:24.033Z,3.00
2023-03-12T08:22:51.093Z,3.30
2023-03-12T08:25:21.149Z,3.20
2023-03-12T08:27:48.026Z,2.90
2023-03-12T08:30:15.088Z,2.80
2023-03-12T08:32:42.245Z,2.60
2023-03-12T08:35:10.170Z,2.60
2023-03-12T08:37:37.087Z,2.80
2023-03-12T08:40:14.209Z,2.80
2023-03-12T08:42:44.630Z,3.00
2023-03-12T08:45:14.953Z,3.20
2023-03-12T08:47:44.217Z,3.50
2023-03-12T08:50:16.675Z,3.80
2023-03-12T08:52:44.974Z,4.00
2023-03-12T08:55:12.665Z,3.90
2023-03-12T08:57:41.037Z,4.00
2023-03-12T09:00:14.881Z,3.80
2023-03-12T09:02:46.538Z,3.70
2023-03-12T09:05:14.468Z,3.70
2023-03-12T09:07:41.923Z,3.60
2023-03-12T09:10:09.913Z,3.70
2023-03-12T09:12:36.906Z,3.70
2023-03-12T09:15:05.220Z,4.10
2023-03-12T09:17:32.922Z,4.00
2023-03-12T09:20:00.757Z,4.00
2023-03-12T09:22:30.537Z,4.20
2023-03-12T09:24:57.969Z,4.30
2023-03-12T09:27:25.062Z,4.60
2023-03-12T09:29:59.964Z,4.90
2023-03-12T09:32:30.197Z,4.90
2023-03-12T09:34:57.307Z,5.30
2023-03-12T09:37:24.613Z,5.10
2023-03-12T09:39:53.640Z,4.70
2023-03-12T09:42:50.484Z,5.00
2023-03-12T09:45:42.745Z,5.50
2023-03-12T09:48:24.954Z,6.10
2023-03-12T09:50:53.581Z,6.50
2023-03-12T09:53:58.597Z,6.50
2023-03-12T09:56:27.617Z,6.10
2023-03-12T09:58:56.276Z,6.20
2023-03-12T10:02:02.402Z,6.10
2023-03-12T10:05:11.452Z,5.20
2023-03-12T10:07:57.839Z,5.40
2023-03-12T10:10:40.484Z,5.80
2023-03-12T10:13:25.120Z,6.40
2023-03-12T10:16:45.160Z,6.40
2023-03-12T10:19:52.336Z,5.80
2023-03-12T10:22:50.749Z,6.00
2023-03-12T10:25:54.369Z,5.80
2023-03-12T10:28:51.319Z,5.60
2023-03-12T10:31:40.768Z,6.00
2023-03-12T10:34:24.550Z,5.90
2023-03-12T10:36:55.172Z,6.50
2023-03-12T10:39:22.354Z,7.20
2023-03-12T10:41:50.571Z,7.50
2023-03-12T10:44:25.166Z,7.00
2023-03-12T10:47:08.225Z,6.30
2023-03-12T10:49:38.037Z,7.00
2023-03-12T10:52:21.826Z,6.80
2023-03-12T10:54:52.810Z,6.60
2023-03-12T10:57:21.260Z,7.10
2023-03-12T10:59:50.901Z,7.10
2023-03-12T11:02:43.340Z,6.90
2023-03-12T11:05:36.181Z,6.80
2023-03-12T11:08:21.598Z,6.60
2023-03-12T11:10:49.271Z,7.00
2023-03-12T11:13:41.035Z,6.90
2023-03-12T11:16:16.925Z,6.60
2023-03-12T11:19:04.337Z,7.10
2023-03-12T11:21:40.372Z,7.30
2023-03-12T11:24:13.501Z,7.40
2023-03-12T11:26:51.232Z,7.90
2023-03-12T11:29:33.353Z,8.20
2023-03-12T11:32:24.987Z,8.60
2023-03-12T11:34:53.102Z,7.50
2023-03-12T11:37:55.858Z,7.00
2023-03-12T11:40:53.861Z,6.50
2023-03-12T11:43:42.550Z,6.30
2023-03-12T11:46:53.533Z,6.10
2023-03-12T11:50:13.148Z,6.20
2023-03-12T11:53:11.191Z,6.40
2023-03-12T11:55:46.411Z,6.40
2023-03-12T11:58:41.500Z,6.10
2023-03-12T12:01:45.174Z,6.30
2023-03-12T12:04:58.688Z,6.70
2023-03-12T12:08:19.185Z,6.70
2023-03-12T12:11:13.047Z,6.70
2023-03-12T12:14:02.412Z,7.10
2023-03-12T12:16:54.234Z,6.70
2023-03-12T12:19:39.238Z,7.00
2023-03-12T12:22:57.335Z,6.10
2023-03-12T12:25:46.525Z,6.50
2023-03-12T12:28:45.199Z,6.50
2023-03-12T12:31:55.948Z,6.60
2023-03-12T12:34:48.878Z,6.60
2023-03-12T12:38:04.162Z,6.50
2023-03-12T12:40:49.384Z,6.50
2023-03-12T12:43:38.244Z,6.20
2023-03-12T12:46:32.357Z,6.20
2023-03-12T12:49:26.106Z,6.20
2023-03-12T12:52:06.389Z,6.20
2023-03-12T12:55:01.009Z,6.10
2023-03-12T12:57:43.747Z,5.90
2023-03-12T13:00:48.167Z,5.90
2023-03-12T13:03:23.661Z,6.00
2023-03-12T13:06:05.107Z,5.80
2023-03-12T13:08:43.650Z,5.70
2023-03-12T13:11:20.250Z,5.80
2023-03-12T13:14:15.804Z,6.00
2023-03-12T13:16:46.998Z,6.00
2023-03-12T13:19:13.801Z,6.10
2023-03-12T13:22:13.900Z,5.80
2023-03-12T13:25:17.442Z,5.80
2023-03-12T13:27:46.449Z,5.80
2023-03-12T13:30:35.548Z,5.80
2023-03-12T13:33:11.794Z,5.90
2023-03-12T13:35:41.011Z,5.80
2023-03-12T13:38:17.656Z,5.80
2023-03-12T13:41:03.124Z,6.00
2023-03-12T13:43:38.733Z,6.00
2023-03-12T13:46:28.197Z,5.90
2023-03-12T13:49:05.388Z,5.70
2023-03-12T13:51:32.989Z,5.80
2023-03-12T13:54:04.281Z,5.80
2023-03-12T13:56:33.979Z,5.80
2023-03-12T13:59:07.127Z,5.50
2023-03-12T14:01:47.757Z,5.60
2023-03-12T14:04:44.451Z,5.60
2023-03-12T14:08:09.745Z,5.60
2023-03-12T14:11:36.310Z,5.60
2023-03-12T14:15:07.363Z,5.50
2023-03-12T14:17:38.422Z,5.50
2023-03-12T14:20:23.056Z,5.30
2023-03-12T14:23:08.429Z,5.30
2023-03-12T14:25:46.241Z,5.30
2023-03-12T14:28:21.818Z,5.30
2023-03-12T14:31:16.639Z,5.30
2023-03-12T14:34:16.351Z,5.20
2023-03-12T14:37:10.677Z,5.30
2023-03-12T14:39:50.738Z,5.10
2023-03-12T14:42:36.850Z,5.00
2023-03-12T14:45:06.843Z,4.90
2023-03-12T14:47:53.089Z,5.00
2023-03-12T14:50:37.583Z,5.00
2023-03-12T14:53:25.741Z,4.90
2023-03-12T14:56:30.613Z,5.00
2023-03-12T14:59:07.102Z,5.00
2023-03-12T15:01:40.322Z,5.00
2023-03-12T15:04:19.551Z,4.90
2023-03-12T15:06:59.228Z,4.80
2023-03-12T15:09:32.352Z,4.70
2023-03-12T15:12:22.604Z,4.80
2023-03-12T15:15:00.297Z,4.70
2023-03-12T15:17:34.997Z,4.80
2023-03-12T15:20:09.937Z,4.90
2023-03-12T15:22:38.488Z,4.90
2023-03-12T15:25:34.487Z,4.70
2023-03-12T15:28:29.802Z,4.50
2023-03-12T15:31:23.165Z,4.50
2023-03-12T15:34:06.233Z,4.50
2023-03-12T15:36:35.633Z,4.50
2023-03-12T15:39:26.509Z,4.70
2023-03-12T15:42:00.548Z,4.70
2023-03-12T15:44:44.959Z,4.60
2023-03-12T15:47:24.912Z,4.60
2023-03-12T15:50:24.292Z,4.40
2023-03-12T15:53:16.042Z,4.40
2023-03-12T15:55:56.601Z,4.40
2023-03-12T15:58:46.192Z,4.40
2023-03-12T16:01:23.963Z,4.40
2023-03-12T16:03:54.397Z,4.50
2023-03-12T16:06:29.662Z,4.50
2023-03-12T16:09:03.812Z,4.70
2023-03-12T16:11:35.894Z,4.70
2023-03-12T16:14:14.315Z,4.50
2023-03-12T16:16:41.439Z,4.50
2023-03-12T16:19:24.216Z,4.50
2023-03-12T16:21:54.115Z,4.30
2023-03-12T16:24:21.088Z,4.30
2023-03-12T16:26:54.827Z,4.40
2023-03-12T16:29:35.554Z,4.40
2023-03-12T16:32:11.263Z,4.20
2023-03-12T16:34:38.164Z,4.00
2023-03-12T16:37:05.025Z,4.10
2023-03-12T16:39:33.325Z,3.80
2023-03-12T16:42:14.757Z,3.70
2023-03-12T16:44:46.030Z,3.60
2023-03-12T16:47:19.615Z,3.70
2023-03-12T16:49:46.649Z,3.80
2023-03-12T16:55:10.523Z,3.80
2023-03-12T16:57:44.327Z,3.80
2023-03-12T17:00:28.965Z,3.80
2023-03-12T17:02:57.936Z,3.80
2023-03-12T17:05:30.852Z,3.80
2023-03-12T17:07:59.426Z,3.80
2023-03-12T17:10:31.221Z,3.90
2023-03-12T17:12:58.695Z,3.80
2023-03-12T17:15:33.560Z,3.80
2023-03-12T17:18:03.567Z,3.90
2023-03-12T17:20:36.135Z,3.90
2023-03-12T17:23:05.632Z,3.90
2023-03-12T17:25:41.807Z,4.00
2023-03-12T17:28:10.116Z,3.80
2023-03-12T17:30:38.732Z,3.90
2023-03-12T17:33:14.353Z,4.00
2023-03-12T17:35:42.888Z,3.90
2023-03-12T17:38:12.515Z,3.80
2023-03-12T17:40:44.846Z,3.80
2023-03-12T17:43:13.192Z,3.80
2023-03-12T17:45:40.200Z,3.70
2023-03-12T17:48:07.297Z,3.70
2023-03-12T17:50:36.483Z,3.50
2023-03-12T17:53:04.419Z,3.40
2023-03-12T17:55:31.544Z,3.50
2023-03-12T17:57:58.717Z,3.30
2023-03-12T18:00:25.761Z,3.30
2023-03-12T18:02:52.760Z,3.30
2023-03-12T18:05:19.822Z,3.20
2023-03-12T18:07:51.106Z,3.40
2023-03-12T18:10:19.037Z,3.30
2023-03-12T18:12:45.987Z,3.20
2023-03-12T18:15:16.824Z,3.10
2023-03-12T18:17:44.924Z,3.20
2023-03-12T18:20:28.666Z,3.30
2023-03-12T18:23:03.047Z,3.10
2023-03-12T18:25:30.016Z,3.10
2023-03-12T18:27:56.987Z,3.10
2023-03-12T18:30:24.109Z,3.10
2023-03-12T18:32:51.762Z,3.10
2023-03-12T18:35:18.923Z,3.00
2023-03-12T18:37:46.186Z,3.00
2023-03-12T18:40:13.633Z,3.10
2023-03-12T18:42:44.278Z,3.10
2023-03-12T18:45:12.420Z,3.00
2023-03-12T18:47:39.789Z,3.00
2023-03-12T18:50:09.284Z,3.00
2023-03-12T18:52:36.239Z,3.00
2023-03-12T18:55:04.621Z,3.00
2023-03-12T18:57:32.122Z,3.10
2023-03-12T18:59:59.459Z,3.10
2023-03-12T19:05:14.416Z,3.10
2023-03-12T19:07:42.206Z,3.10
2023-03-12T19:10:11.865Z,3.10
2023-03-12T19:12:51.571Z,3.10
2023-03-12T19:15:24.257Z,3.10
2023-03-12T19:17:51.716Z,3.10
2023-03-12T19:20:18.801Z,3.10
2023-03-12T19:22:45.862Z,3.10
2023-03-12T19:25:12.928Z,3.10
2023-03-12T19:27:39.806Z,3.20
2023-03-12T19:30:08.301Z,3.20
2023-03-12T19:32:43.379Z,3.30
2023-03-12T19:35:14.554Z,3.30
2023-03-12T19:37:42.911Z,3.20
2023-03-12T19:40:11.486Z,3.30
2023-03-12T19:42:38.558Z,3.30
2023-03-12T19:45:06.546Z,3.30
2023-03-12T19:47:33.753Z,3.30
2023-03-12T19:50:00.907Z,3.40
2023-03-12T19:52:30.350Z,3.40
2023-03-12T19:55:04.611Z,3.40
2023-03-12T19:57:34.448Z,3.40
2023-03-12T20:00:01.609Z,3.50
2023-03-12T20:02:28.852Z,3.60
2023-03-12T20:04:55.846Z,3.70
2023-03-12T20:07:22.826Z,3.70
2023-03-12T20:09:50.047Z,3.70
2023-03-12T20:12:17.075Z,3.90
2023-03-12T20:14:45.091Z,3.90
2023-03-12T20:17:12.342Z,4.00
2023-03-12T20:19:40.293Z,4.10
2023-03-12T20:22:08.097Z,4.20
2023-03-12T20:24:35.594Z,4.20
2023-03-12T20:27:03.863Z,4.20
2023-03-12T20:29:31.176Z,4.30
2023-03-12T20:31:58.233Z,4.30
2023-03-12T20:34:25.324Z,4.40
2023-03-12T20:36:52.420Z,4.40
2023-03-12T20:39:19.474Z,4.50
2023-03-12T20:41:46.426Z,4.50
2023-03-12T20:44:13.490Z,4.60
2023-03-12T20:46:40.363Z,4.70
2023-03-12T20:49:07.692Z,4.70
2023-03-12T20:51:34.581Z,4.70
2023-03-12T20:54:01.495Z,4.70
2023-03-12T20:56:28.511Z,4.70
2023-03-12T20:58:55.527Z,4.80
2023-03-12T21:01:22.541Z,4.70
2023-03-12T21:03:50.401Z,4.60
2023-03-12T21:06:19.267Z,4.70
2023-03-12T21:08:46.151Z,4.70
2023-03-12T21:11:14.312Z,4.70
2023-03-12T21:13:41.458Z,4.80
2023-03-12T21:16:11.938Z,4.80
2023-03-12T21:18:39.217Z,4.70
2023-03-12T21:21:08.496Z,4.80
2023-03-12T21:23:36.378Z,4.80
2023-03-12T21:26:09.382Z,4.90
2023-03-12T21:28:36.759Z,4.90
2023-03-12T21:31:13.802Z,4.90
2023-03-12T21:33:41.524Z,5.00
2023-03-12T21:36:14.257Z,5.10
2023-03-12T21:38:42.960Z,5.00
2023-03-12T21:41:19.815Z,4.90
2023-03-12T21:43:48.094Z,4.90
2023-03-12T21:46:25.520Z,5.00
2023-03-12T21:48:52.567Z,4.90
2023-03-12T21:51:19.666Z,5.00
2023-03-12T21:53:46.764Z,5.00
2023-03-12T21:56:13.894Z,5.10
2023-03-12T21:58:41.376Z,5.10
2023-03-12T22:01:14.060Z,5.20
2023-03-12T22:03:43.839Z,5.10
2023-03-12T22:06:13.627Z,5.20
2023-03-12T22:08:42.527Z,5.20
2023-03-12T22:11:10.258Z,5.30
2023-03-12T22:13:38.024Z,5.40
2023-03-12T22:16:08.975Z,5.40
2023-03-12T22:18:43.969Z,5.50
2023-03-12T22:21:25.975Z,5.50
2023-03-12T22:23:55.130Z,5.60
2023-03-12T22:26:25.206Z,5.50
2023-03-12T22:28:59.454Z,5.60
2023-03-12T22:31:29.767Z,5.60
2023-03-12T22:33:57.679Z,5.60
2023-03-12T22:36:25.677Z,5.60
2023-03-12T22:38:53.823Z,5.60
2023-03-12T22:41:31.178Z,5.60
2023-03-12T22:44:07.463Z,5.60
2023-03-12T22:46:35.729Z,5.60
2023-03-12T22:49:04.994Z,5.60
2023-03-12T22:51:33.641Z,5.60
2023-03-12T22:54:01.004Z,5.70
2023-03-12T22:56:29.353Z,5.70
2023-03-12T22:58:56.741Z,5.80
2023-03-12T23:01:25.215Z,5.70
2023-03-12T23:03:52.684Z,5.80
2023-03-12T23:06:28.355Z,5.90
2023-03-12T23:08:56.114Z,6.00
2023-03-12T23:11:25.494Z,5.90
2023-03-12T23:13:54.487Z,5.90
2023-03-12T23:16:25.965Z,5.90
2023-03-12T23:18:53.602Z,5.90
2023-03-12T23:21:24.136Z,5.90
2023-03-12T23:23:52.318Z,5.90
2023-03-12T23:26:27.400Z,5.90
2023-03-12T23:28:59.275Z,5.90
2023-03-12T23:31:28.909Z,5.90
2023-03-12T23:33:58.423Z,6.00
2023-03-12T23:36:25.798Z,6.10
2023-03-12T23:38:53.001Z,6.00
2023-03-12T23:41:29.352Z,6.00
2023-03-12T23:44:00.321Z,6.00
2023-03-12T23:46:27.818Z,6.00
2023-03-12T23:48:55.161Z,6.00
2023-03-12T23:51:33.029Z,6.00
2023-03-12T23:54:07.602Z,6.00
2023-03-12T23:56:40.163Z,6.00
2023-03-12T23:59:10.578Z,6.10
